createdAt,value
2019-05-29T00:00:50.587Z,13.30
2019-05-29T00:03:21.051Z,13.30
2019-05-29T00:05:51.400Z,13.30
2019-05-29T00:08:21.872Z,13.30
2019-05-29T00:10:52.160Z,13.40
2019-05-29T00:13:22.486Z,13.30
2019-05-29T00:15:52.823Z,13.30
2019-05-29T00:18:23.188Z,13.30
2019-05-29T00:20:53.571Z,13.40
2019-05-29T00:23:23.952Z,13.40
2019-05-29T00:25:54.319Z,13.40
2019-05-29T00:28:24.725Z,13.30
2019-05-29T00:30:55.091Z,13.40
2019-05-29T00:33:25.423Z,13.40
2019-05-29T00:35:55.720Z,13.30
2019-05-29T00:38:26.156Z,13.20
2019-05-29T00:40:56.503Z,13.30
2019-05-29T00:43:26.975Z,13.30
2019-05-29T00:45:57.280Z,13.10
2019-05-29T00:48:27.630Z,13.20
2019-05-29T00:50:58.015Z,13.10
2019-05-29T00:53:28.338Z,13.20
2019-05-29T00:55:58.626Z,13.20
2019-05-29T00:58:28.946Z,13.30
2019-05-29T01:00:59.462Z,13.30
2019-05-29T01:03:29.808Z,13.30
2019-05-29T01:06:00.126Z,13.30
2019-05-29T01:08:30.527Z,13.50
2019-05-29T01:11:00.847Z,13.50
2019-05-29T01:13:31.183Z,13.50
2019-05-29T01:16:01.655Z,13.40
2019-05-29T01:18:32.039Z,13.20
2019-05-29T01:21:02.415Z,13.20
2019-05-29T01:23:32.759Z,13.20
2019-05-29T01:26:03.162Z,13.20
2019-05-29T01:28:33.495Z,13.20
2019-05-29T01:31:03.784Z,13.30
2019-05-29T01:33:34.221Z,13.20
2019-05-29T01:36:04.525Z,13.20
2019-05-29T01:38:34.998Z,13.30
2019-05-29T01:41:05.318Z,13.10
2019-05-29T01:43:35.719Z,13.10
2019-05-29T01:46:06.105Z,13.10
2019-05-29T01:48:36.499Z,13.00
2019-05-29T01:51:06.851Z,13.10
2019-05-29T01:53:37.207Z,13.20
2019-05-29T01:56:07.599Z,13.20
2019-05-29T01:58:38.358Z,13.10
2019-05-29T02:01:08.775Z,13.10
2019-05-29T02:03:39.129Z,13.10
2019-05-29T02:06:09.448Z,13.20
2019-05-29T02:08:39.794Z,13.10
2019-05-29T02:11:10.173Z,13.10
2019-05-29T02:13:40.447Z,13.10
2019-05-29T02:16:10.759Z,13.10
2019-05-29T02:18:42.146Z,13.00
2019-05-29T02:21:13.025Z,13.00
2019-05-29T02:23:43.392Z,13.00
2019-05-29T02:26:13.767Z,12.80
2019-05-29T02:28:44.151Z,12.80
2019-05-29T02:31:14.470Z,12.80
2019-05-29T02:33:44.892Z,12.90
2019-05-29T02:36:15.270Z,12.90
2019-05-29T02:38:45.713Z,12.80
2019-05-29T02:41:16.274Z,12.80
2019-05-29T02:43:46.791Z,12.90
2019-05-29T02:46:19.479Z,12.90
2019-05-29T02:48:50.099Z,12.80
2019-05-29T02:51:22.084Z,12.80
2019-05-29T02:53:52.721Z,12.80
2019-05-29T02:56:24.722Z,12.90
2019-05-29T02:58:55.349Z,12.80
2019-05-29T03:01:27.613Z,12.70
2019-05-29T03:03:57.824Z,12.70
2019-05-29T03:06:28.255Z,12.50
2019-05-29T03:08:58.772Z,12.60
2019-05-29T03:11:29.667Z,12.70
2019-05-29T03:14:01.394Z,12.70
2019-05-29T03:16:32.821Z,12.70
2019-05-29T03:19:03.876Z,12.70
2019-05-29T03:21:34.777Z,12.70
2019-05-29T03:24:05.448Z,12.60
2019-05-29T03:26:35.864Z,12.60
2019-05-29T03:29:06.197Z,12.50
2019-05-29T03:31:45.482Z,12.60
2019-05-29T03:34:08.700Z,12.70
2019-05-29T03:36:46.421Z,12.70
2019-05-29T03:39:11.048Z,12.80
2019-05-29T03:41:41.427Z,12.80
2019-05-29T03:44:11.852Z,12.90
2019-05-29T03:46:45.651Z,12.80
2019-05-29T03:49:14.421Z,12.80
2019-05-29T03:51:44.803Z,12.80
2019-05-29T03:54:15.295Z,12.90
2019-05-29T03:56:45.733Z,12.70
2019-05-29T03:59:16.118Z,12.60
2019-05-29T04:01:46.446Z,12.60
2019-05-29T04:04:16.769Z,12.60
2019-05-29T04:06:47.571Z,12.50
2019-05-29T04:09:18.136Z,12.60
2019-05-29T04:11:48.591Z,12.60
2019-05-29T04:14:18.999Z,12.60
2019-05-29T04:16:59.125Z,12.60
2019-05-29T04:19:24.204Z,12.60
2019-05-29T04:21:57.638Z,12.60
2019-05-29T04:24:48.261Z,12.50
2019-05-29T04:27:21.318Z,12.50
2019-05-29T04:29:52.399Z,12.60
2019-05-29T04:32:22.742Z,12.30
2019-05-29T04:34:53.179Z,12.30
2019-05-29T04:37:23.612Z,12.50
2019-05-29T04:39:54.175Z,12.40
2019-05-29T04:42:24.568Z,12.60
2019-05-29T04:44:54.982Z,12.50
2019-05-29T04:47:25.315Z,12.50
2019-05-29T04:49:55.763Z,12.60
2019-05-29T04:52:26.177Z,12.60
2019-05-29T04:54:56.594Z,12.60
2019-05-29T04:57:26.944Z,12.60
2019-05-29T04:59:57.320Z,12.70
2019-05-29T05:02:28.844Z,12.60
2019-05-29T05:04:59.424Z,12.70
2019-05-29T05:07:29.771Z,12.50
2019-05-29T05:10:00.192Z,12.50
2019-05-29T05:12:31.513Z,12.60
2019-05-29T05:15:02.511Z,12.60
2019-05-29T05:17:33.769Z,12.60
2019-05-29T05:20:04.644Z,12.70
2019-05-29T05:22:36.384Z,12.60
2019-05-29T05:25:07.066Z,12.60
2019-05-29T05:27:38.418Z,12.50
2019-05-29T05:30:09.452Z,12.50
2019-05-29T05:32:41.104Z,12.50
2019-05-29T05:35:14.467Z,12.60
2019-05-29T05:37:44.323Z,12.70
2019-05-29T05:40:14.766Z,12.70
2019-05-29T05:42:45.185Z,12.80
2019-05-29T05:45:15.628Z,12.80
2019-05-29T05:47:56.876Z,12.90
2019-05-29T05:50:18.755Z,12.90
2019-05-29T05:52:49.134Z,13.00
2019-05-29T05:55:19.666Z,13.00
2019-05-29T05:57:50.037Z,12.90
2019-05-29T06:00:31.887Z,12.80
2019-05-29T06:03:02.626Z,12.70
2019-05-29T06:05:33.968Z,12.80
2019-05-29T06:08:04.415Z,12.80
2019-05-29T06:10:36.028Z,12.80
2019-05-29T06:13:06.596Z,12.90
2019-05-29T06:15:37.035Z,13.10
2019-05-29T06:18:20.600Z,13.10
2019-05-29T06:20:40.880Z,13.20
2019-05-29T06:23:11.651Z,13.30
2019-05-29T06:25:43.643Z,13.40
2019-05-29T06:28:14.276Z,13.40
2019-05-29T06:30:45.149Z,13.30
2019-05-29T06:33:15.695Z,13.40
2019-05-29T06:35:46.119Z,13.40
2019-05-29T06:38:16.519Z,13.40
2019-05-29T06:40:47.565Z,13.30
2019-05-29T06:43:22.869Z,13.20
2019-05-29T06:45:54.767Z,13.30
2019-05-29T06:48:41.286Z,13.40
2019-05-29T06:50:58.800Z,13.40
2019-05-29T06:53:29.132Z,13.40
2019-05-29T06:56:01.146Z,13.50
2019-05-29T06:58:31.757Z,13.60
2019-05-29T07:01:02.178Z,13.50
2019-05-29T07:03:32.590Z,13.50
2019-05-29T07:06:03.096Z,13.50
2019-05-29T07:08:39.002Z,13.50
2019-05-29T07:11:05.719Z,13.50
2019-05-29T07:13:38.369Z,13.50
2019-05-29T07:16:08.975Z,13.40
2019-05-29T07:18:40.903Z,13.50
2019-05-29T07:21:11.508Z,13.60
2019-05-29T07:23:45.195Z,13.60
2019-05-29T07:26:14.115Z,13.60
2019-05-29T07:29:03.493Z,13.70
2019-05-29T07:31:16.638Z,13.70
2019-05-29T07:33:47.449Z,13.70
2019-05-29T07:36:17.843Z,13.80
2019-05-29T07:39:00.669Z,13.80
2019-05-29T07:41:20.375Z,13.80
2019-05-29T07:43:50.724Z,13.80
2019-05-29T07:46:21.143Z,13.80
2019-05-29T07:48:51.588Z,13.90
2019-05-29T07:51:22.103Z,13.90
2019-05-29T07:53:52.523Z,13.90
2019-05-29T07:56:23.502Z,14.00
2019-05-29T07:59:02.754Z,14.00
2019-05-29T08:01:26.155Z,14.10
2019-05-29T08:03:56.499Z,13.90
2019-05-29T08:06:26.878Z,14.00
2019-05-29T08:08:57.288Z,14.00
2019-05-29T08:11:27.631Z,14.10
2019-05-29T08:13:58.027Z,14.10
2019-05-29T08:16:28.412Z,14.10
2019-05-29T08:18:58.767Z,14.10
2019-05-29T08:21:29.243Z,14.20
2019-05-29T08:24:00.203Z,14.20
2019-05-29T08:26:30.507Z,14.20
2019-05-29T08:29:00.924Z,14.20
2019-05-29T08:31:31.268Z,14.20
2019-05-29T08:34:01.639Z,14.10
2019-05-29T08:36:32.023Z,14.10
2019-05-29T08:39:02.427Z,14.20
2019-05-29T08:41:32.770Z,14.20
2019-05-29T08:44:03.136Z,14.20
2019-05-29T08:46:33.670Z,14.30
2019-05-29T08:49:04.109Z,14.30
2019-05-29T08:51:34.631Z,14.30
2019-05-29T08:54:22.934Z,14.40
2019-05-29T08:56:37.112Z,14.20
2019-05-29T08:59:07.488Z,14.30
2019-05-29T09:01:37.791Z,14.20
2019-05-29T09:04:08.127Z,14.20
2019-05-29T09:06:38.504Z,14.30
2019-05-29T09:09:08.900Z,14.40
2019-05-29T09:11:39.569Z,14.40
2019-05-29T09:14:09.954Z,14.40
2019-05-29T09:16:40.327Z,14.40
2019-05-29T09:19:12.040Z,14.30
2019-05-29T09:21:43.518Z,14.30
2019-05-29T09:24:14.626Z,14.50
2019-05-29T09:26:46.643Z,14.50
2019-05-29T09:29:20.048Z,14.60
2019-05-29T09:31:49.113Z,14.70
2019-05-29T09:34:20.566Z,14.80
2019-05-29T09:36:54.151Z,14.90
2019-05-29T09:39:23.116Z,14.80
2019-05-29T09:41:53.545Z,14.90
2019-05-29T09:44:33.904Z,15.00
2019-05-29T09:46:56.214Z,14.90
2019-05-29T09:49:26.762Z,14.90
2019-05-29T09:51:57.953Z,15.00
2019-05-29T09:54:28.690Z,15.10
2019-05-29T09:56:59.950Z,15.10
2019-05-29T09:59:31.801Z,15.20
2019-05-29T10:02:05.764Z,15.10
2019-05-29T10:04:34.551Z,14.90
2019-05-29T10:07:05.366Z,15.00
2019-05-29T10:09:35.924Z,15.00
2019-05-29T10:12:06.999Z,15.10
2019-05-29T10:14:37.673Z,15.10
2019-05-29T10:17:12.740Z,15.20
2019-05-29T10:19:40.696Z,15.30
2019-05-29T10:22:11.233Z,15.30
2019-05-29T10:24:41.927Z,15.30
2019-05-29T10:27:12.423Z,15.40
2019-05-29T10:29:43.104Z,15.50
2019-05-29T10:32:13.592Z,15.60
2019-05-29T10:34:44.360Z,15.70
2019-05-29T10:37:17.975Z,15.80
2019-05-29T10:39:47.182Z,15.90
2019-05-29T10:42:20.438Z,16.00
2019-05-29T10:44:51.143Z,16.10
2019-05-29T10:47:21.757Z,16.20
2019-05-29T10:49:52.206Z,16.20
2019-05-29T10:52:22.798Z,16.20
2019-05-29T10:54:54.347Z,16.20
2019-05-29T10:57:25.695Z,16.30
2019-05-29T10:59:56.214Z,16.40
2019-05-29T11:02:26.713Z,16.50
2019-05-29T11:04:59.234Z,16.60
2019-05-29T11:07:29.416Z,16.70
2019-05-29T11:09:59.823Z,16.70
2019-05-29T11:12:30.357Z,16.90
2019-05-29T11:15:00.883Z,16.90
2019-05-29T11:17:31.310Z,16.90
2019-05-29T11:20:01.872Z,16.80
2019-05-29T11:22:32.587Z,16.70
2019-05-29T11:25:20.983Z,16.60
2019-05-29T11:27:35.150Z,16.60
2019-05-29T11:30:06.506Z,16.60
2019-05-29T11:32:36.980Z,16.50
2019-05-29T11:35:07.617Z,16.50
2019-05-29T11:37:38.107Z,16.40
2019-05-29T11:40:08.732Z,16.40
2019-05-29T11:42:39.226Z,16.30
2019-05-29T11:45:10.320Z,16.40
2019-05-29T11:47:40.861Z,16.30
2019-05-29T11:50:19.162Z,16.10
2019-05-29T11:52:44.784Z,16.20
2019-05-29T11:55:15.478Z,16.10
2019-05-29T11:57:46.048Z,16.20
2019-05-29T12:00:20.627Z,16.20
2019-05-29T12:02:51.487Z,16.30
2019-05-29T12:05:22.405Z,16.30
2019-05-29T12:07:53.462Z,16.40
2019-05-29T12:10:24.145Z,16.50
2019-05-29T12:12:55.467Z,16.50
2019-05-29T12:15:25.928Z,16.40
2019-05-29T12:18:18.494Z,16.30
2019-05-29T12:20:29.219Z,16.10
2019-05-29T12:23:24.347Z,16.20
2019-05-29T12:25:32.263Z,16.30
2019-05-29T12:28:03.481Z,16.30
2019-05-29T12:30:34.245Z,16.40
2019-05-29T12:33:04.951Z,16.40
2019-05-29T12:35:35.413Z,16.50
2019-05-29T12:38:06.208Z,16.50
2019-05-29T12:40:36.913Z,16.50
2019-05-29T12:43:25.545Z,16.70
2019-05-29T12:45:39.846Z,16.90
2019-05-29T12:48:13.321Z,17.00
2019-05-29T12:50:42.488Z,17.10
2019-05-29T12:53:28.870Z,17.30
2019-05-29T12:55:45.258Z,17.40
2019-05-29T12:58:15.702Z,17.40
2019-05-29T13:00:46.122Z,17.50
2019-05-29T13:03:16.652Z,17.60
2019-05-29T13:05:47.199Z,17.60
2019-05-29T13:08:17.692Z,17.60
2019-05-29T13:10:48.152Z,17.70
2019-05-29T13:13:18.691Z,17.70
2019-05-29T13:15:49.135Z,17.60
2019-05-29T13:18:19.738Z,17.60
2019-05-29T13:20:50.319Z,17.70
2019-05-29T13:23:20.854Z,17.60
2019-05-29T13:25:51.337Z,17.60
2019-05-29T13:28:21.895Z,17.60
2019-05-29T13:30:52.328Z,17.50
2019-05-29T13:33:22.869Z,17.50
2019-05-29T13:35:53.305Z,17.60
2019-05-29T13:38:23.834Z,17.50
2019-05-29T13:40:54.348Z,17.60
2019-05-29T13:43:24.830Z,17.60
2019-05-29T13:45:56.298Z,17.60
2019-05-29T13:48:26.900Z,17.60
2019-05-29T13:50:57.426Z,17.50
2019-05-29T13:53:28.019Z,17.40
2019-05-29T13:55:59.713Z,17.40
2019-05-29T13:58:30.351Z,17.40
2019-05-29T14:01:02.339Z,17.50
2019-05-29T14:03:33.054Z,17.30
2019-05-29T14:06:05.432Z,17.30
2019-05-29T14:08:36.112Z,17.20
2019-05-29T14:11:07.273Z,17.00
2019-05-29T14:13:37.842Z,16.90
2019-05-29T14:16:08.529Z,16.90
2019-05-29T14:18:39.090Z,16.70
2019-05-29T14:21:09.625Z,16.60
2019-05-29T14:23:40.179Z,16.40
2019-05-29T14:26:10.712Z,16.30
2019-05-29T14:28:41.271Z,16.20
2019-05-29T14:31:12.184Z,16.00
2019-05-29T14:33:42.760Z,16.00
2019-05-29T14:36:13.169Z,16.00
2019-05-29T14:38:43.675Z,15.90
2019-05-29T14:41:14.137Z,16.00
2019-05-29T14:43:44.635Z,16.00
2019-05-29T14:46:15.106Z,16.00
2019-05-29T14:48:45.692Z,16.00
2019-05-29T14:51:16.115Z,16.00
2019-05-29T14:53:46.607Z,15.90
2019-05-29T14:56:17.096Z,15.90
2019-05-29T14:58:47.627Z,15.90
2019-05-29T15:01:18.097Z,15.90
2019-05-29T15:03:48.603Z,15.90
2019-05-29T15:06:19.123Z,15.90
2019-05-29T15:08:49.909Z,16.00
2019-05-29T15:11:20.451Z,15.90
2019-05-29T15:13:50.916Z,15.90
2019-05-29T15:16:21.453Z,15.90
2019-05-29T15:18:51.925Z,15.90
2019-05-29T15:21:22.428Z,15.80
2019-05-29T15:23:52.900Z,15.70
2019-05-29T15:26:23.420Z,15.60
2019-05-29T15:28:53.928Z,15.70
2019-05-29T15:31:24.519Z,15.70
2019-05-29T15:33:54.957Z,15.70
2019-05-29T15:36:25.511Z,15.50
2019-05-29T15:38:55.985Z,15.60
2019-05-29T15:41:26.508Z,15.70
2019-05-29T15:43:56.980Z,15.80
2019-05-29T15:46:27.642Z,15.80
2019-05-29T15:48:58.188Z,15.80
2019-05-29T15:51:28.746Z,15.90
2019-05-29T15:53:59.404Z,15.90
2019-05-29T15:56:30.041Z,16.00
2019-05-29T15:59:00.651Z,16.00
2019-05-29T16:01:31.409Z,16.00
2019-05-29T16:04:02.103Z,16.00
2019-05-29T16:06:32.845Z,16.00
2019-05-29T16:09:03.740Z,16.00
2019-05-29T16:11:34.556Z,16.00
2019-05-29T16:14:05.205Z,16.00
2019-05-29T16:16:35.773Z,16.10
2019-05-29T16:19:06.380Z,16.00
2019-05-29T16:21:36.883Z,16.10
2019-05-29T16:24:07.445Z,16.10
2019-05-29T16:26:38.250Z,16.10
2019-05-29T16:29:10.338Z,16.10
2019-05-29T16:31:41.080Z,16.00
2019-05-29T16:34:12.326Z,16.10
2019-05-29T16:36:43.095Z,16.00
2019-05-29T16:39:13.750Z,16.10
2019-05-29T16:41:44.398Z,16.10
2019-05-29T16:44:16.168Z,16.10
2019-05-29T16:46:47.051Z,16.20
2019-05-29T16:49:18.634Z,16.20
2019-05-29T16:51:49.394Z,16.20
2019-05-29T16:54:21.063Z,16.20
2019-05-29T16:56:51.803Z,16.20
2019-05-29T16:59:24.928Z,16.20
2019-05-29T17:01:54.692Z,16.30
2019-05-29T17:04:25.208Z,16.30
2019-05-29T17:06:55.747Z,16.30
2019-05-29T17:09:26.275Z,16.20
2019-05-29T17:11:56.743Z,16.20
2019-05-29T17:14:27.214Z,16.10
2019-05-29T17:16:57.825Z,16.20
2019-05-29T17:19:28.430Z,16.30
2019-05-29T17:21:59.055Z,16.30
2019-05-29T17:24:32.383Z,16.30
2019-05-29T17:27:02.924Z,16.50
2019-05-29T17:29:33.624Z,16.40
2019-05-29T17:32:04.328Z,16.40
2019-05-29T17:34:34.843Z,16.20
2019-05-29T17:37:05.438Z,15.90
2019-05-29T17:39:35.936Z,15.90
2019-05-29T17:42:06.697Z,15.80
2019-05-29T17:44:37.416Z,15.80
2019-05-29T17:47:08.124Z,15.70
2019-05-29T17:49:38.594Z,15.60
2019-05-29T17:52:09.129Z,15.50
2019-05-29T17:54:40.184Z,15.40
2019-05-29T17:57:10.844Z,15.30
2019-05-29T17:59:41.320Z,15.30
2019-05-29T18:02:11.849Z,15.30
2019-05-29T18:04:42.456Z,15.40
2019-05-29T18:07:13.073Z,15.30
2019-05-29T18:09:43.677Z,15.30
2019-05-29T18:12:14.371Z,15.40
2019-05-29T18:14:44.837Z,15.40
2019-05-29T18:17:17.355Z,15.10
2019-05-29T18:19:48.144Z,15.20
2019-05-29T18:22:19.563Z,15.20
2019-05-29T18:24:50.206Z,15.20
2019-05-29T18:27:21.871Z,15.20
2019-05-29T18:29:52.583Z,15.30
2019-05-29T18:32:24.425Z,15.20
2019-05-29T18:34:56.462Z,15.20
2019-05-29T18:37:28.352Z,15.10
2019-05-29T18:39:59.000Z,15.00
2019-05-29T18:42:29.509Z,15.10
2019-05-29T18:45:00.098Z,15.00
2019-05-29T18:47:30.835Z,15.00
2019-05-29T18:50:01.425Z,14.90
2019-05-29T18:52:32.851Z,14.90
2019-05-29T18:55:03.425Z,14.90
2019-05-29T18:57:33.981Z,15.00
2019-05-29T19:00:04.768Z,14.90
2019-05-29T19:02:35.343Z,14.90
2019-05-29T19:05:06.681Z,14.80
2019-05-29T19:07:37.405Z,14.80
2019-05-29T19:10:08.552Z,14.80
2019-05-29T19:12:39.276Z,14.80
2019-05-29T19:15:10.011Z,14.70
2019-05-29T19:17:40.441Z,14.50
2019-05-29T19:20:11.379Z,14.40
2019-05-29T19:22:41.806Z,14.40
2019-05-29T19:25:12.338Z,14.30
2019-05-29T19:27:42.850Z,14.30
2019-05-29T19:30:13.404Z,14.30
2019-05-29T19:32:43.900Z,14.40
2019-05-29T19:35:14.562Z,14.40
2019-05-29T19:37:45.103Z,14.30
2019-05-29T19:40:16.127Z,14.20
2019-05-29T19:42:46.535Z,14.10
2019-05-29T19:45:17.663Z,13.90
2019-05-29T19:47:48.420Z,14.00
2019-05-29T19:50:19.094Z,14.10
2019-05-29T19:52:49.835Z,14.10
2019-05-29T19:55:20.493Z,13.90
2019-05-29T19:57:56.481Z,13.60
2019-05-29T20:00:26.030Z,13.50
2019-05-29T20:02:56.591Z,13.30
2019-05-29T20:05:26.975Z,13.20
2019-05-29T20:07:57.367Z,13.10
2019-05-29T20:10:27.751Z,13.30
2019-05-29T20:12:58.139Z,13.50
2019-05-29T20:15:29.809Z,13.30
2019-05-29T20:18:00.653Z,13.30
2019-05-29T20:20:32.367Z,13.40
2019-05-29T20:23:03.054Z,13.50
2019-05-29T20:25:33.545Z,13.60
2019-05-29T20:28:06.621Z,13.60
2019-05-29T20:30:36.493Z,13.60
2019-05-29T20:33:07.029Z,13.40
2019-05-29T20:35:37.699Z,13.50
2019-05-29T20:38:08.388Z,13.60
2019-05-29T20:40:39.467Z,13.60
2019-05-29T20:43:10.094Z,13.60
2019-05-29T20:45:41.477Z,13.60
2019-05-29T20:48:12.626Z,13.40
2019-05-29T20:50:43.368Z,13.40
2019-05-29T20:53:13.948Z,13.40
2019-05-29T20:55:44.523Z,13.30
2019-05-29T20:58:24.494Z,13.30
2019-05-29T21:00:47.341Z,13.30
2019-05-29T21:03:18.063Z,13.30
2019-05-29T21:05:48.735Z,13.30
2019-05-29T21:08:19.412Z,13.20
2019-05-29T21:10:50.016Z,13.20
2019-05-29T21:13:20.562Z,12.90
2019-05-29T21:15:51.088Z,12.90
2019-05-29T21:18:22.668Z,12.90
2019-05-29T21:20:53.195Z,13.00
2019-05-29T21:23:24.212Z,13.10
2019-05-29T21:25:54.707Z,13.10
2019-05-29T21:28:39.345Z,13.00
2019-05-29T21:30:57.755Z,13.00
2019-05-29T21:33:28.213Z,13.00
2019-05-29T21:35:58.847Z,12.70
2019-05-29T21:38:29.390Z,12.80
2019-05-29T21:40:59.853Z,12.80
2019-05-29T21:43:30.394Z,12.70
2019-05-29T21:46:01.104Z,12.50
2019-05-29T21:48:31.680Z,12.50
2019-05-29T21:51:02.457Z,12.50
2019-05-29T21:53:32.961Z,12.50
2019-05-29T21:56:03.359Z,12.60
2019-05-29T21:58:33.920Z,12.70
2019-05-29T22:01:04.787Z,12.60
2019-05-29T22:03:35.323Z,12.40
2019-05-29T22:06:05.971Z,12.20
2019-05-29T22:08:36.564Z,12.30
2019-05-29T22:11:07.452Z,12.30
2019-05-29T22:13:37.955Z,12.30
2019-05-29T22:16:08.696Z,12.20
2019-05-29T22:18:39.226Z,12.20
2019-05-29T22:21:09.986Z,12.10
2019-05-29T22:23:40.552Z,12.20
2019-05-29T22:26:11.355Z,12.10
2019-05-29T22:28:41.883Z,12.10
2019-05-29T22:31:12.418Z,12.10
2019-05-29T22:33:43.827Z,11.90
2019-05-29T22:36:14.356Z,11.90
2019-05-29T22:38:44.853Z,11.90
2019-05-29T22:41:15.359Z,11.90
2019-05-29T22:43:45.936Z,12.00
2019-05-29T22:46:16.415Z,11.90
2019-05-29T22:48:46.886Z,11.90
2019-05-29T22:51:17.548Z,11.80
2019-05-29T22:53:47.901Z,11.50
2019-05-29T22:56:18.272Z,11.50
2019-05-29T22:58:48.615Z,11.60
2019-05-29T23:01:19.117Z,11.80
2019-05-29T23:03:49.516Z,11.80
2019-05-29T23:06:19.839Z,11.80
2019-05-29T23:08:50.219Z,11.80
2019-05-29T23:11:20.619Z,11.70
2019-05-29T23:13:52.164Z,11.80
2019-05-29T23:16:22.732Z,11.80
2019-05-29T23:18:54.337Z,11.80
2019-05-29T23:21:24.869Z,11.90
2019-05-29T23:23:55.403Z,11.90
2019-05-29T23:26:25.866Z,11.70
2019-05-29T23:28:56.862Z,11.30
2019-05-29T23:31:27.329Z,11.50
2019-05-29T23:33:58.741Z,11.50
2019-05-29T23:36:29.510Z,11.50
2019-05-29T23:38:59.899Z,11.70
2019-05-29T23:41:30.257Z,11.60
2019-05-29T23:44:01.628Z,11.50
2019-05-29T23:46:32.060Z,11.50
2019-05-29T23:49:03.837Z,11.50
2019-05-29T23:51:34.354Z,11.50
2019-05-29T23:54:04.784Z,11.50
2019-05-29T23:56:35.184Z,11.50
2019-05-29T23:59:05.536Z,11.50
